クウェート の空港の天気 - METARとTAF

クウェート国際空港 ( OKBK / KWI ) - クウェート クウェート
飛行場実況気象(Metar)
観測時間01/29 10:00 AST (01/29 07:00 UTC)
風向・風速北 3m/s
視程6000m
天気現象
少しの雲 雲底高度 1220m
全天の8割程度の雲 雲底高度 2440m
気温13℃
湿度47%
気圧1024hPa
METAROKBK 290700Z 01006KT 6000 FEW040 BKN080 13/02 Q1024 NOSIG
過去の天気等 Google飛行場航空写真 Wunderground天気予報

過去48時間のMETAR

飛行場予報(TAF)
発表時間: 1/29 07:45 AST (1/29 04:45 UTC)
予報対象時間: 29日9時 AST ~ 30日15時 AST
風向・風速北 5m/s
視程7000m
なし
TAF OKBK 290445Z 2906/3012 35010KT 7000 NSC